<?xml version="1.0" encoding="utf-8"?>
<gpx xmlns:xsi="http://www.w3.org/2001/XMLSchema-instance" xmlns:xsd="http://www.w3.org/2001/XMLSchema" version="1.1" creator="Shapelink.com" xmlns="http://www.topografix.com/GPX/1/1" xmlns:gpxtpx="http://www.garmin.com/xmlschemas/TrackPointExtension/v1">
  <metadata>
    <name>Övrigt 1.95 km, 2020-08-16</name>
    <desc></desc>
    <author><name>Marian Moron</name></author> 
    <time>2020-08-16T19:41:54Z</time>
  </metadata>
  <trk>
    <name>Övrigt 1.95 km, 2020-08-16</name>
    <trkseg>
      <trkpt lat="51.229856970008" lon="4.457888956033">
        <ele>11.8</ele>
        <time>2020-08-16T19:41:54Z</time>
      </trkpt>
      <trkpt lat="51.229889743237" lon="4.457929524429">
        <ele>3.8</ele>
        <time>2020-08-16T19:41:58Z</time>
      </trkpt>
      <trkpt lat="51.229892928359" lon="4.457949054256">
        <ele>3.6</ele>
        <time>2020-08-16T19:41:59Z</time>
      </trkpt>
      <trkpt lat="51.229892257807" lon="4.45798140839">
        <ele>3</ele>
        <time>2020-08-16T19:42:00Z</time>
      </trkpt>
      <trkpt lat="51.229974065151" lon="4.458297573658">
        <ele>0</ele>
        <time>2020-08-16T19:42:21Z</time>
      </trkpt>
      <trkpt lat="51.230125442265" lon="4.458767462972">
        <ele>0</ele>
        <time>2020-08-16T19:42:58Z</time>
      </trkpt>
      <trkpt lat="51.230459963894" lon="4.458706526559">
        <ele>0</ele>
        <time>2020-08-16T19:43:35Z</time>
      </trkpt>
      <trkpt lat="51.230531796777" lon="4.458826052453">
        <ele>0</ele>
        <time>2020-08-16T19:43:45Z</time>
      </trkpt>
      <trkpt lat="51.230531964415" lon="4.458993522815">
        <ele>0.6</ele>
        <time>2020-08-16T19:43:58Z</time>
      </trkpt>
      <trkpt lat="51.230636654346" lon="4.459653848897">
        <ele>6</ele>
        <time>2020-08-16T19:44:33Z</time>
      </trkpt>
      <trkpt lat="51.230653250508" lon="4.459664410091">
        <ele>6</ele>
        <time>2020-08-16T19:44:35Z</time>
      </trkpt>
      <trkpt lat="51.230786941813" lon="4.459674049276">
        <ele>6.4</ele>
        <time>2020-08-16T19:45:05Z</time>
      </trkpt>
      <trkpt lat="51.23124233044" lon="4.45956055835">
        <ele>5</ele>
        <time>2020-08-16T19:45:40Z</time>
      </trkpt>
      <trkpt lat="51.231335704806" lon="4.459570700449">
        <ele>4.2</ele>
        <time>2020-08-16T19:45:50Z</time>
      </trkpt>
      <trkpt lat="51.231628233116" lon="4.459575142856">
        <ele>1.2</ele>
        <time>2020-08-16T19:46:15Z</time>
      </trkpt>
      <trkpt lat="51.231879522478" lon="4.459728363988">
        <ele>0</ele>
        <time>2020-08-16T19:46:41Z</time>
      </trkpt>
      <trkpt lat="51.23201597981" lon="4.460394138305">
        <ele>0</ele>
        <time>2020-08-16T19:47:26Z</time>
      </trkpt>
      <trkpt lat="51.23202855266" lon="4.460638386871">
        <ele>0</ele>
        <time>2020-08-16T19:47:41Z</time>
      </trkpt>
      <trkpt lat="51.232141037758" lon="4.461334252209">
        <ele>0.2</ele>
        <time>2020-08-16T19:48:16Z</time>
      </trkpt>
      <trkpt lat="51.232276824538" lon="4.46201142591">
        <ele>0.8</ele>
        <time>2020-08-16T19:48:55Z</time>
      </trkpt>
      <trkpt lat="51.232325691015" lon="4.462461953035">
        <ele>0</ele>
        <time>2020-08-16T19:49:24Z</time>
      </trkpt>
      <trkpt lat="51.232393416767" lon="4.462952378004">
        <ele>9.2</ele>
        <time>2020-08-16T19:49:52Z</time>
      </trkpt>
      <trkpt lat="51.232405905798" lon="4.463127308257">
        <ele>6.8</ele>
        <time>2020-08-16T19:50:06Z</time>
      </trkpt>
      <trkpt lat="51.232465333469" lon="4.463833902427">
        <ele>4.6</ele>
        <time>2020-08-16T19:50:40Z</time>
      </trkpt>
      <trkpt lat="51.232388052351" lon="4.464020232064">
        <ele>0.8</ele>
        <time>2020-08-16T19:50:57Z</time>
      </trkpt>
      <trkpt lat="51.232206919492" lon="4.4640406839">
        <ele>0</ele>
        <time>2020-08-16T19:51:14Z</time>
      </trkpt>
      <trkpt lat="51.232058056948" lon="4.463926103327">
        <ele>0</ele>
        <time>2020-08-16T19:51:30Z</time>
      </trkpt>
      <trkpt lat="51.231954540483" lon="4.463804230501">
        <ele>0</ele>
        <time>2020-08-16T19:52:00Z</time>
      </trkpt>
      <trkpt lat="51.231788495044" lon="4.463592587526">
        <ele>0</ele>
        <time>2020-08-16T19:52:19Z</time>
      </trkpt>
      <trkpt lat="51.231745076802" lon="4.46355872465">
        <ele>0</ele>
        <time>2020-08-16T19:52:38Z</time>
      </trkpt>
      <trkpt lat="51.231396725038" lon="4.463275500249">
        <ele>0</ele>
        <time>2020-08-16T19:53:09Z</time>
      </trkpt>
      <trkpt lat="51.231083996349" lon="4.463285055615">
        <ele>0</ele>
        <time>2020-08-16T19:54:09Z</time>
      </trkpt>
      <trkpt lat="51.231050217292" lon="4.463293772791">
        <ele>0</ele>
        <time>2020-08-16T19:54:13Z</time>
      </trkpt>
      <trkpt lat="51.230622153659" lon="4.463338951232">
        <ele>16</ele>
        <time>2020-08-16T19:55:16Z</time>
      </trkpt>
      <trkpt lat="51.230567419852" lon="4.463360744172">
        <ele>16</ele>
        <time>2020-08-16T19:55:23Z</time>
      </trkpt>
      <trkpt lat="51.23046113736" lon="4.463652099016">
        <ele>3.4</ele>
        <time>2020-08-16T19:56:03Z</time>
      </trkpt>
      <trkpt lat="51.23047622478" lon="4.463703480063">
        <ele>2.6</ele>
        <time>2020-08-16T19:56:06Z</time>
      </trkpt>
      <trkpt lat="51.230601366547" lon="4.46419491086">
        <ele>5</ele>
        <time>2020-08-16T19:56:40Z</time>
      </trkpt>
      <trkpt lat="51.23068996323" lon="4.464720288352">
        <ele>10.8</ele>
        <time>2020-08-16T19:57:25Z</time>
      </trkpt>
      <trkpt lat="51.2306505683" lon="4.464606126874">
        <ele>7</ele>
        <time>2020-08-16T19:57:35Z</time>
      </trkpt>
      <trkpt lat="51.230560211418" lon="4.464337822255">
        <ele>1.6</ele>
        <time>2020-08-16T19:57:52Z</time>
      </trkpt>
      <trkpt lat="51.230402966974" lon="4.463846726734">
        <ele>0</ele>
        <time>2020-08-16T19:58:23Z</time>
      </trkpt>
      <trkpt lat="51.230187133049" lon="4.464009587051">
        <ele>0</ele>
        <time>2020-08-16T19:58:50Z</time>
      </trkpt>
      <trkpt lat="51.229823777684" lon="4.46423933493">
        <ele>8.8</ele>
        <time>2020-08-16T20:00:20Z</time>
      </trkpt>
      <trkpt lat="51.229683716135" lon="4.464181164544">
        <ele>8.8</ele>
        <time>2020-08-16T20:00:41Z</time>
      </trkpt>
      <trkpt lat="51.229625294292" lon="4.46419574905">
        <ele>10</ele>
        <time>2020-08-16T20:00:49Z</time>
      </trkpt>
      <trkpt lat="51.229563854965" lon="4.464252159237">
        <ele>7.2</ele>
        <time>2020-08-16T20:00:58Z</time>
      </trkpt>
      <trkpt lat="51.229111902917" lon="4.464348383449">
        <ele>4.4</ele>
        <time>2020-08-16T20:01:59Z</time>
      </trkpt>
      <trkpt lat="51.228996065059" lon="4.464372439502">
        <ele>1.8</ele>
        <time>2020-08-16T20:02:25Z</time>
      </trkpt>
      <trkpt lat="51.22883840152" lon="4.464370427846">
        <ele>0.4</ele>
        <time>2020-08-16T20:03:04Z</time>
      </trkpt>
      <trkpt lat="51.228795989106" lon="4.464295996574">
        <ele>0</ele>
        <time>2020-08-16T20:03:11Z</time>
      </trkpt>
      <trkpt lat="51.228572946747" lon="4.464106481815">
        <ele>0</ele>
        <time>2020-08-16T20:03:46Z</time>
      </trkpt>
      <trkpt lat="51.228562553191" lon="4.46406499141">
        <ele>0</ele>
        <time>2020-08-16T20:03:49Z</time>
      </trkpt>
      <trkpt lat="51.228495330353" lon="4.46368110039">
        <ele>0.6</ele>
        <time>2020-08-16T20:04:28Z</time>
      </trkpt>
      <trkpt lat="51.228356777546" lon="4.463434504892">
        <ele>0</ele>
        <time>2020-08-16T20:05:11Z</time>
      </trkpt>
      <trkpt lat="51.22828854888" lon="4.463421093852">
        <ele>2.4</ele>
        <time>2020-08-16T20:05:18Z</time>
      </trkpt>
      <trkpt lat="51.228181763474" lon="4.463202996814">
        <ele>9.2</ele>
        <time>2020-08-16T20:05:45Z</time>
      </trkpt>
      <trkpt lat="51.227883367834" lon="4.462768730575">
        <ele>1.2</ele>
        <time>2020-08-16T20:06:13Z</time>
      </trkpt>
      <trkpt lat="51.227881020902" lon="4.462714415863">
        <ele>0.8</ele>
        <time>2020-08-16T20:06:17Z</time>
      </trkpt>
      <trkpt lat="51.227878003418" lon="4.462629255759">
        <ele>0.6</ele>
        <time>2020-08-16T20:06:21Z</time>
      </trkpt>
      <trkpt lat="51.22787699759" lon="4.462610312665">
        <ele>0.2</ele>
        <time>2020-08-16T20:06:22Z</time>
      </trkpt>
      <trkpt lat="51.227879763617" lon="4.462555662677">
        <ele>0</ele>
        <time>2020-08-16T20:06:25Z</time>
      </trkpt>
      <trkpt lat="51.227849840234" lon="4.461832304707">
        <ele>0</ele>
        <time>2020-08-16T20:07:11Z</time>
      </trkpt>
      <trkpt lat="51.227842464162" lon="4.461697523755">
        <ele>0</ele>
        <time>2020-08-16T20:07:20Z</time>
      </trkpt>
      <trkpt lat="51.227853360632" lon="4.460978356735">
        <ele>5.6</ele>
        <time>2020-08-16T20:08:04Z</time>
      </trkpt>
      <trkpt lat="51.227807092544" lon="4.460651462635">
        <ele>4.8</ele>
        <time>2020-08-16T20:08:31Z</time>
      </trkpt>
      <trkpt lat="51.228168352434" lon="4.460359856334">
        <ele>13.6</ele>
        <time>2020-08-16T20:09:36Z</time>
      </trkpt>
      <trkpt lat="51.228318639901" lon="4.460103621651">
        <ele>0</ele>
        <time>2020-08-16T20:10:06Z</time>
      </trkpt>
      <trkpt lat="51.228408661507" lon="4.459541950532">
        <ele>0</ele>
        <time>2020-08-16T20:11:05Z</time>
      </trkpt>
      <trkpt lat="51.228562217915" lon="4.458851701067">
        <ele>2.6</ele>
        <time>2020-08-16T20:12:00Z</time>
      </trkpt>
      <trkpt lat="51.228529360867" lon="4.458708202939">
        <ele>2.4</ele>
        <time>2020-08-16T20:12:12Z</time>
      </trkpt>
      <trkpt lat="51.228517877664" lon="4.458624216301">
        <ele>1</ele>
        <time>2020-08-16T20:12:20Z</time>
      </trkpt>
      <trkpt lat="51.228569258711" lon="4.458196404125">
        <ele>0</ele>
        <time>2020-08-16T20:12:56Z</time>
      </trkpt>
      <trkpt lat="51.229023138596" lon="4.458101185741">
        <ele>15.6</ele>
        <time>2020-08-16T20:13:57Z</time>
      </trkpt>
      <trkpt lat="51.229280211469" lon="4.458003704244">
        <ele>8.8</ele>
        <time>2020-08-16T20:14:25Z</time>
      </trkpt>
      <trkpt lat="51.229403676856" lon="4.457965818056">
        <ele>9.6</ele>
        <time>2020-08-16T20:14:42Z</time>
      </trkpt>
      <trkpt lat="51.229540134188" lon="4.457906055109">
        <ele>12</ele>
        <time>2020-08-16T20:15:00Z</time>
      </trkpt>
      <trkpt lat="51.229702659229" lon="4.457894571906">
        <ele>12.6</ele>
        <time>2020-08-16T20:15:40Z</time>
      </trkpt>
    </trkseg>
  </trk>
</gpx>